Caribbean Princess — ZCDG8 — position and weather

sailwx.info

Track history (hours):
 
Tides and Currents Weather Stations Pressure Air Temp Water Temp Dewpoint Dewpoint Depression Visibility Wind Speed Wind Dir Waves Ship Positions

Caribbean Princess

Operator: Princess Cruises

Last reported at 2017-Aug-17 03:30 UTC. Time now 2017-Aug-17 03:39 UTC.
Position N 50°53' W 001°24'.

Type: Passenger vessel. MMSI: 310423000.

Date/timePositionNaut miles runAvg speedWind from/ knotsBaromVisibWave heightAir tempDewpointWater temp
2017-Aug-17 03:30N 50°53' W 001°24'510.4
2017-Aug-17 03:00N 50°50' W 001°18'4 8.9
2017-Aug-17 02:30N 50°46' W 001°14'815.1
2017-Aug-17 02:00N 50°44' W 001°03'510.4
2017-Aug-17 01:30N 50°39' W 000°58'611.5
2017-Aug-17 01:01N 50°34' W 000°59'612.0
2017-Aug-17 00:30N 50°28' W 000°54'611.9
2017-Aug-17 00:00N 50°24' W 000°48'611.3
2017-Aug-16 23:30N 50°18' W 000°46'611.3
2017-Aug-16 23:00N 50°13' W 000°44'611.5
2017-Aug-16 22:30N 50°07' W 000°40'611.6
2017-Aug-16 22:01N 50°02' W 000°37'611.6
2017-Aug-16 21:30N 49°57' W 000°33'611.7
2017-Aug-16 21:01N 49°52' W 000°30'1512.2
2017-Aug-16 19:48N 49°37' W 000°24'414.3
2017-Aug-16 19:30N 49°35' W 000°19'713.4
2017-Aug-16 18:59N 49°32' W 000°09'611.4
2017-Aug-16 18:30N 49°30' W 000°01'510.8
2017-Aug-16 18:00N 49°29' E 000°06'0 0.2
2017-Aug-16 17:29N 49°29' E 000°06'0 0.0
2017-Aug-16 16:58N 49°29' E 000°06'0 0.0
2017-Aug-16 16:30N 49°29' E 000°06'0 0.0
2017-Aug-16 16:00N 49°29' E 000°06'0 0.0
2017-Aug-16 15:29N 49°29' E 000°06'0 0.0
2017-Aug-16 15:00N 49°29' E 000°06'0 0.0
2017-Aug-16 14:30N 49°29' E 000°06'0 0.0
2017-Aug-16 14:00N 49°29' E 000°06'0 0.0
2017-Aug-16 13:29N 49°29' E 000°06'0 0.0
2017-Aug-16 12:57N 49°29' E 000°06'0 0.0
2017-Aug-16 12:30N 49°29' E 000°06'0 0.0
2017-Aug-16 11:59N 49°29' E 000°06'0 0.0
2017-Aug-16 11:29N 49°29' E 000°06'0 0.0
2017-Aug-16 10:58N 49°29' E 000°06'0 0.0
2017-Aug-16 10:30N 49°29' E 000°06'0 0.0
2017-Aug-16 10:00N 49°29' E 000°06'0 0.0
2017-Aug-16 09:29N 49°29' E 000°06'0 0.0
2017-Aug-16 08:59N 49°29' E 000°06'0 0.0
2017-Aug-16 08:29N 49°29' E 000°06'0 0.0
2017-Aug-16 08:00N 49°29' E 000°06'0 0.0
2017-Aug-16 07:30N 49°29' E 000°06'0 0.0
2017-Aug-16 07:00N 49°29' E 000°06'0 0.0
2017-Aug-16 06:29N 49°29' E 000°06'0 0.0
2017-Aug-16 05:58N 49°29' E 000°06'0 0.0
2017-Aug-16 05:30N 49°29' E 000°06'0 0.0
2017-Aug-16 05:00N 49°29' E 000°06'0 0.0
2017-Aug-16 04:30N 49°29' E 000°06'1 1.2
2017-Aug-16 04:00N 49°29' E 000°07'4 8.5
2017-Aug-16 03:30N 49°30' E 000°01'713.6
2017-Aug-16 03:00N 49°32' W 000°09'611.2
2017-Aug-16 02:30N 49°34' W 000°17'713.7
2017-Aug-16 02:00N 49°40' W 000°21'263969.0
2017-Aug-16 02:00N 49°48' E 000°18'2643.3 250 / 141021.310.8 16.314.015.0
2017-Aug-16 01:23N 49°48' W 000°23'512.9
2017-Aug-16 01:00N 49°53' W 000°19'713.1
2017-Aug-16 00:31N 49°59' W 000°14'713.5
2017-Aug-16 00:00N 50°05' W 000°09'713.5
2017-Aug-15 23:30N 50°11' W 000°05'714.2
2017-Aug-15 23:00N 50°18' W 000°07'713.8
2017-Aug-15 22:30N 50°24' W 000°09'713.9
2017-Aug-15 22:01N 50°28' E 000°01'714.5
2017-Aug-15 21:30N 50°30' E 000°12'714.5
2017-Aug-15 21:00N 50°32' E 000°23'714.4
2017-Aug-15 20:30N 50°35' E 000°33'714.0
2017-Aug-15 20:00N 50°38' E 000°43'816.0
2017-Aug-15 19:31N 50°43' E 000°53'816.7
2017-Aug-15 19:01N 50°48' E 001°04'816.2
2017-Aug-15 18:30N 50°52' E 001°15'815.3
2017-Aug-15 18:01N 50°58' E 001°23'715.0
2017-Aug-15 17:31N 51°03' E 001°31'815.0
2017-Aug-15 17:01N 51°09' E 001°39'815.4
2017-Aug-15 16:31N 51°14' E 001°47'917.0
2017-Aug-15 16:01N 51°23' E 001°51'917.1
2017-Aug-15 15:30N 51°31' E 001°51'918.3
2017-Aug-15 15:01N 51°40' E 001°46'1019.1
2017-Aug-15 14:31N 51°49' E 001°44'1019.3
2017-Aug-15 14:01N 51°59' E 001°44'1019.3
2017-Aug-15 13:31N 52°08' E 001°46'2017.7
2017-Aug-15 12:23N 52°28' E 001°55'719.8
2017-Aug-15 12:00N 52°35' E 001°57'918.2
2017-Aug-15 11:30N 52°44' E 001°53'1019.3
2017-Aug-15 11:00N 52°52' E 001°44'1019.2
2017-Aug-15 10:30N 52°59' E 001°33'918.5
2017-Aug-15 10:00N 53°07' E 001°25'918.3
2017-Aug-15 09:31N 53°14' E 001°16'1018.2
2017-Aug-15 08:56N 53°23' E 001°08'4018.3
2017-Aug-15 06:45N 53°57' E 000°31'417.8
2017-Aug-15 06:31N 54°01' E 000°28'917.7
2017-Aug-15 06:01N 54°08' E 000°20'191170.0
2017-Aug-15 06:00N 54°24' E 000°00'1122.4 190 / 281009.510.8 15.512.815.0
2017-Aug-15 05:31N 54°16' E 000°12'917.3
2017-Aug-15 05:01N 54°23' E 000°04'917.2
2017-Aug-15 04:31N 54°30' W 000°05'816.9
2017-Aug-15 04:01N 54°37' W 000°13'816.8
2017-Aug-15 03:31N 54°44' W 000°21'916.6
2017-Aug-15 02:59N 54°51' W 000°29'816.6
2017-Aug-15 02:31N 54°58' W 000°36'816.5
2017-Aug-15 02:01N 55°05' W 000°44'816.5
2017-Aug-15 01:31N 55°12' W 000°52'816.4
2017-Aug-15 01:01N 55°18' W 001°00'7443.1
2017-Aug-15 01:00N 55°12' W 000°54'1632.1 160 / 321008.510.8 15.512.815.0
2017-Aug-15 00:31N 55°25' W 001°08'916.9
2017-Aug-15 00:00N 55°32' W 001°17'917.2
2017-Aug-14 23:30N 55°39' W 001°25'917.2
2017-Aug-14 23:00N 55°46' W 001°35'917.4
2017-Aug-14 22:31N 55°52' W 001°45'917.7
2017-Aug-14 22:01N 55°59' W 001°56'917.3
2017-Aug-14 21:30N 56°04' W 002°09'918.0
2017-Aug-14 21:01N 56°06' W 002°25'3182.6
2017-Aug-14 21:00N 56°06' W 002°30'612.2 150 / 181009.610.8 15.512.815.0
2017-Aug-14 20:31N 56°07' W 002°41'917.9
2017-Aug-14 20:01N 56°04' W 002°56'714.7
2017-Aug-14 19:31N 56°03' W 003°09'713.0
2017-Aug-14 19:00N 56°01' W 003°20'1 0.3
2017-Aug-14 14:33N 56°00' W 003°23'0 0.2
2017-Aug-14 14:30N 56°00' W 003°23'0 0.0
2017-Aug-14 08:20N 56°00' W 003°23'0 0.0
2017-Aug-14 07:17N 56°00' W 003°23'0 0.2
2017-Aug-14 06:35N 56°00' W 003°22'0 1.0
2017-Aug-14 06:22N 56°01' W 003°22'411.4
2017-Aug-14 06:00N 56°02' W 003°15'714.9
2017-Aug-14 05:30N 56°04' W 003°02'612.6
2017-Aug-14 05:00N 56°05' W 002°51'714.0
2017-Aug-14 04:30N 56°08' W 002°40'713.7
2017-Aug-14 04:00N 56°11' W 002°28'815.4
2017-Aug-14 03:30N 56°17' W 002°21'917.7
2017-Aug-14 03:00N 56°25' W 002°12'917.7
2017-Aug-14 02:30N 56°32' W 002°04'917.6
2017-Aug-14 02:01N 56°40' W 001°58'5272.5
2017-Aug-14 02:00N 56°36' W 001°54'1225.2 160 / 251017.010.8 13.511.614.0
2017-Aug-14 01:30N 56°48' W 001°51'917.0
2017-Aug-14 01:00N 56°56' W 001°45'916.9
2017-Aug-14 00:30N 57°04' W 001°39'916.6
2017-Aug-13 23:58N 57°13' W 001°38'816.6
2017-Aug-13 23:30N 57°20' W 001°37'816.6
2017-Aug-13 23:01N 57°29' W 001°36'816.3
2017-Aug-13 22:30N 57°37' W 001°38'816.1
2017-Aug-13 22:00N 57°44' W 001°44'816.0
2017-Aug-13 21:30N 57°47' W 001°58'917.5
2017-Aug-13 21:00N 57°48' W 002°14'46 2.5
2017-Aug-13 02:13N 58°28' W 002°58'419.6
2017-Aug-13 02:00N 58°32' W 002°58'1020.0
2017-Aug-13 01:30N 58°42' W 003°02'1019.7
2017-Aug-13 01:00N 58°43' W 003°21'816.6
2017-Aug-13 00:30N 58°43' W 003°37'714.5
2017-Aug-13 00:00N 58°43' W 003°51'714.3
2017-Aug-12 23:30N 58°43' W 004°04'714.2
2017-Aug-12 23:00N 58°43' W 004°18'6540.6
2017-Aug-12 23:00N 58°42' W 004°30'1 2.4 270 / 181016.610.8 13.010.114.0
2017-Aug-12 22:30N 58°43' W 004°32'4512.9
2017-Aug-12 19:00N 58°12' W 005°36'1110.0 320 / 161016.610.8 13.610.615.0
2017-Aug-12 17:54N 58°05' W 005°52'613.0
2017-Aug-12 17:29N 58°00' W 005°57'4513.0
2017-Aug-12 14:00N 57°24' W 006°48'6220.7 320 / 161016.610.8 13.610.615.0
2017-Aug-12 11:00N 56°24' W 007°18'2512.2 320 / 201015.910.8 13.210.915.0
2017-Aug-12 08:54N 55°59' W 007°07'717.5
2017-Aug-12 08:30N 55°53' W 007°01'918.0
2017-Aug-12 08:01N 55°45' W 006°54'918.9
2017-Aug-12 07:31N 55°37' W 006°46'1019.7
2017-Aug-12 07:01N 55°32' W 006°31'1020.6
2017-Aug-12 06:31N 55°27' W 006°15'1020.6
2017-Aug-12 06:00N 55°22' W 005°59'1021.0
2017-Aug-12 05:30N 55°15' W 005°45'4 7.0
2017-Aug-12 05:00N 55°12' W 005°42'1561.6 210 / 261015.110.8 14.212.016.0
2017-Aug-12 04:45N 55°20' W 005°19'519.3
2017-Aug-12 04:28N 55°22' W 005°11'10 0.4
2017-Aug-11 02:00N 55°24' W 004°54'339.4 210 / 261015.110.8 14.212.016.0
2017-Aug-11 01:55N 55°23' W 004°59'1010.5
2017-Aug-11 00:57N 55°19' W 005°15'710.9
2017-Aug-11 00:18N 55°12' W 005°19'311.2
2017-Aug-11 00:00N 55°10' W 005°24'611.2
2017-Aug-10 23:30N 55°08' W 005°33'510.8
2017-Aug-10 23:00N 55°03' W 005°35'611.2
2017-Aug-10 22:30N 54°58' W 005°32'611.0
2017-Aug-10 22:00N 54°52' W 005°31'510.1
2017-Aug-10 21:30N 54°47' W 005°32'611.5
2017-Aug-10 21:00N 54°43' W 005°40'510.3
2017-Aug-10 20:30N 54°41' W 005°48'5 9.6
2017-Aug-10 20:00N 54°38' W 005°53'1 0.8
2017-Aug-10 19:07N 54°37' W 005°54'0 0.0
2017-Aug-10 18:58N 54°37' W 005°54'0 0.0
2017-Aug-10 17:10N 54°37' W 005°54'0 0.0
2017-Aug-10 16:52N 54°37' W 005°54'0 0.0
2017-Aug-10 16:16N 54°37' W 005°54'0 0.0
2017-Aug-10 15:49N 54°37' W 005°54'0 0.0
2017-Aug-10 15:22N 54°37' W 005°54'0 0.0
2017-Aug-10 14:52N 54°37' W 005°54'0 0.0
2017-Aug-10 14:28N 54°37' W 005°54'0 0.0
2017-Aug-10 13:19N 54°37' W 005°54'0 0.0
2017-Aug-10 12:52N 54°37' W 005°54'0 0.0
2017-Aug-10 12:28N 54°37' W 005°54'0 0.0
2017-Aug-10 11:58N 54°37' W 005°54'0 0.0
2017-Aug-10 10:34N 54°37' W 005°54'0 0.0
2017-Aug-10 10:22N 54°37' W 005°54'0 0.0
2017-Aug-10 09:04N 54°37' W 005°54'0 0.0
2017-Aug-10 08:55N 54°37' W 005°54'0 0.0
2017-Aug-10 08:23N 54°37' W 005°54'1 1.4
2017-Aug-10 07:55N 54°38' W 005°53'3 6.1
2017-Aug-10 07:29N 54°40' W 005°51'510.9
2017-Aug-10 07:00N 54°43' W 005°43'3 6.5
2017-Aug-10 06:30N 54°44' W 005°38'3 6.9
2017-Aug-10 06:00N 54°45' W 005°32'510.0
2017-Aug-10 05:30N 54°42' W 005°25'611.0
2017-Aug-10 05:00N 54°38' W 005°19'611.2
2017-Aug-10 04:30N 54°33' W 005°12'612.7
2017-Aug-10 04:00N 54°28' W 005°05'612.4
2017-Aug-10 03:30N 54°23' W 005°00'714.4
2017-Aug-10 03:00N 54°16' W 005°05'714.1
2017-Aug-10 02:31N 54°10' W 005°10'713.7
2017-Aug-10 02:00N 54°03' W 005°13'3211.2
2017-Aug-10 02:00N 54°00' W 005°12'5 9.9 340 / 231023.610.8 14.611.615.0
2017-Aug-10 01:30N 53°59' W 005°04'5015.1
2017-Aug-09 22:12N 53°36' W 003°49'315.2
2017-Aug-09 22:01N 53°35' W 003°45'815.0
2017-Aug-09 21:30N 53°34' W 003°32'815.2
2017-Aug-09 21:00N 53°32' W 003°20'3354.6
2017-Aug-09 21:00N 53°30' W 003°24'815.8 330 / 301023.6 5.4 15.610.716.0
2017-Aug-09 20:30N 53°32' W 003°11'5 9.2
2017-Aug-09 20:00N 53°29' W 003°05'510.3
2017-Aug-09 19:30N 53°25' W 003°00'0 0.5
2017-Aug-09 18:58N 53°24' W 003°00'0 0.0
2017-Aug-09 18:28N 53°24' W 003°00'0 0.0
2017-Aug-09 17:55N 53°24' W 003°00'0 0.0
2017-Aug-09 17:28N 53°24' W 003°00'0 0.0
2017-Aug-09 16:58N 53°24' W 003°00'0 0.0
2017-Aug-09 16:28N 53°24' W 003°00'0 0.0
2017-Aug-09 15:58N 53°24' W 003°00'0 0.0
2017-Aug-09 15:28N 53°24' W 003°00'0 0.0
2017-Aug-09 14:58N 53°24' W 003°00'0 0.0
2017-Aug-09 14:28N 53°24' W 003°00'0 0.0
2017-Aug-09 13:58N 53°24' W 003°00'0 0.0
2017-Aug-09 13:28N 53°24' W 003°00'0 0.0
2017-Aug-09 12:58N 53°24' W 003°00'0 0.0
2017-Aug-09 12:28N 53°24' W 003°00'0 0.0
2017-Aug-09 11:43N 53°24' W 003°00'0 0.0
2017-Aug-09 11:28N 53°24' W 003°00'0 0.0
2017-Aug-09 10:55N 53°24' W 003°00'0 0.0
2017-Aug-09 10:25N 53°24' W 003°00'0 0.0
2017-Aug-09 09:58N 53°24' W 003°00'0 0.0
2017-Aug-09 09:28N 53°24' W 003°00'0 0.0
2017-Aug-09 08:55N 53°24' W 003°00'0 0.0
2017-Aug-09 08:28N 53°24' W 003°00'0 0.0
2017-Aug-09 08:01N 53°24' W 003°00'0 0.0
2017-Aug-09 07:25N 53°24' W 003°00'0 0.0
2017-Aug-09 06:58N 53°24' W 003°00'0 0.0
2017-Aug-09 06:28N 53°24' W 003°00'0 0.0
2017-Aug-09 05:58N 53°24' W 003°00'0 0.0
2017-Aug-09 05:28N 53°24' W 003°00'0 0.0
2017-Aug-09 04:58N 53°24' W 003°00'0 0.3
2017-Aug-09 04:30N 53°24' W 003°00'3 5.1
2017-Aug-09 04:00N 53°27' W 003°02'4 8.6
2017-Aug-09 03:30N 53°30' W 003°06'611.3
2017-Aug-09 03:00N 53°31' W 003°15'815.8
2017-Aug-09 02:30N 53°31' W 003°29'916.9
2017-Aug-09 02:00N 53°31' W 003°43'917.7
2017-Aug-09 01:30N 53°35' W 003°57'917.6
2017-Aug-09 01:00N 53°38' W 004°10'78 3.8
2017-Aug-08 04:36N 52°44' W 005°44'112.4
2017-Aug-08 04:30N 52°43' W 005°44'612.1
2017-Aug-08 04:00N 52°37' W 005°47'611.7
2017-Aug-08 03:29N 52°31' W 005°50'511.2
2017-Aug-08 03:00N 52°26' W 005°52'510.8
2017-Aug-08 02:30N 52°21' W 005°54'510.4
2017-Aug-08 02:00N 52°16' W 005°57'4305.0
2017-Aug-08 02:00N 52°12' W 005°54'3 6.8 340 / 201014.310.8 14.012.216.0
2017-Aug-08 01:30N 52°11' W 005°59'511.0
2017-Aug-08 01:00N 52°06' W 006°04'612.0
2017-Aug-08 00:30N 52°03' W 006°12'612.7
2017-Aug-08 00:00N 52°01' W 006°22'613.0
2017-Aug-07 23:30N 51°59' W 006°32'713.5
2017-Aug-07 23:00N 51°58' W 006°42'713.5
2017-Aug-07 22:30N 51°56' W 006°53'713.6
2017-Aug-07 22:00N 51°54' W 007°04'713.5
2017-Aug-07 21:30N 51°53' W 007°14'713.5
2017-Aug-07 21:00N 51°51' W 007°25'713.5
2017-Aug-07 20:30N 51°49' W 007°36'713.5
2017-Aug-07 20:00N 51°48' W 007°46'6426.0
2017-Aug-07 20:00N 51°48' W 007°36'1327.0 320 / 121016.210.8 14.012.216.0
2017-Aug-07 19:30N 51°46' W 007°57'713.9
2017-Aug-07 19:00N 51°44' W 008°08'510.7
2017-Aug-07 18:30N 51°46' W 008°15'5 9.8
2017-Aug-07 18:00N 51°51' W 008°17'0 0.8
2017-Aug-07 17:29N 51°51' W 008°18'0 0.0
2017-Aug-07 16:59N 51°51' W 008°18'0 0.0
2017-Aug-07 16:29N 51°51' W 008°18'0 0.0
2017-Aug-07 15:59N 51°51' W 008°18'0 0.0
2017-Aug-07 15:29N 51°51' W 008°18'0 0.0
2017-Aug-07 14:59N 51°51' W 008°18'0 0.0
2017-Aug-07 14:29N 51°51' W 008°18'0 0.0
2017-Aug-07 13:59N 51°51' W 008°18'0 0.0
2017-Aug-07 13:29N 51°51' W 008°18'0 0.0
2017-Aug-07 12:59N 51°51' W 008°18'0 0.0
2017-Aug-07 12:29N 51°51' W 008°18'0 0.0
2017-Aug-07 11:59N 51°51' W 008°18'0 0.0
2017-Aug-07 11:29N 51°51' W 008°18'0 0.0
2017-Aug-07 10:59N 51°51' W 008°18'0 0.0
2017-Aug-07 10:29N 51°51' W 008°18'0 0.0
2017-Aug-07 09:59N 51°51' W 008°18'0 0.0
2017-Aug-07 09:29N 51°51' W 008°18'0 0.0
2017-Aug-07 08:59N 51°51' W 008°18'0 0.0
2017-Aug-07 08:29N 51°51' W 008°18'0 0.0
2017-Aug-07 07:59N 51°51' W 008°18'0 0.0
2017-Aug-07 07:29N 51°51' W 008°18'0 0.0
2017-Aug-07 06:59N 51°51' W 008°18'0 0.9
2017-Aug-07 06:30N 51°51' W 008°17'510.9
2017-Aug-07 06:01N 51°46' W 008°15'713.4
2017-Aug-07 05:31N 51°40' W 008°09'1019.0
2017-Aug-07 05:01N 51°34' W 007°58'918.8
2017-Aug-07 04:31N 51°27' W 007°47'918.5
2017-Aug-07 04:00N 51°21' W 007°36'  
Track history (hours):
 
Tides and Currents Weather Stations Pressure Air Temp Water Temp Dewpoint Dewpoint Depression Visibility Wind Speed Wind Dir Waves Ship Positions

Caribbean Princess

Operator: Princess Cruises

Last reported at 2017-Aug-17 03:30 UTC. Time now 2017-Aug-17 03:39 UTC.
Position N 50°53' W 001°24'.

Type: Passenger vessel. MMSI: 310423000.

Date/timePositionNaut miles runAvg speedWind from/ knotsBaromVisibWave heightAir tempDewpointWater temp
2017-Aug-17 03:30N 50°53' W 001°24'510.4
2017-Aug-17 03:00N 50°50' W 001°18'4 8.9
2017-Aug-17 02:30N 50°46' W 001°14'815.1
2017-Aug-17 02:00N 50°44' W 001°03'510.4
2017-Aug-17 01:30N 50°39' W 000°58'611.5
2017-Aug-17 01:01N 50°34' W 000°59'612.0
2017-Aug-17 00:30N 50°28' W 000°54'611.9
2017-Aug-17 00:00N 50°24' W 000°48'611.3
2017-Aug-16 23:30N 50°18' W 000°46'611.3
2017-Aug-16 23:00N 50°13' W 000°44'611.5
2017-Aug-16 22:30N 50°07' W 000°40'611.6
2017-Aug-16 22:01N 50°02' W 000°37'611.6
2017-Aug-16 21:30N 49°57' W 000°33'611.7
2017-Aug-16 21:01N 49°52' W 000°30'1512.2
2017-Aug-16 19:48N 49°37' W 000°24'414.3
2017-Aug-16 19:30N 49°35' W 000°19'713.4
2017-Aug-16 18:59N 49°32' W 000°09'611.4
2017-Aug-16 18:30N 49°30' W 000°01'510.8
2017-Aug-16 18:00N 49°29' E 000°06'0 0.2
2017-Aug-16 17:29N 49°29' E 000°06'0 0.0
2017-Aug-16 16:58N 49°29' E 000°06'0 0.0
2017-Aug-16 16:30N 49°29' E 000°06'0 0.0
2017-Aug-16 16:00N 49°29' E 000°06'0 0.0
2017-Aug-16 15:29N 49°29' E 000°06'0 0.0
2017-Aug-16 15:00N 49°29' E 000°06'0 0.0
2017-Aug-16 14:30N 49°29' E 000°06'0 0.0
2017-Aug-16 14:00N 49°29' E 000°06'0 0.0
2017-Aug-16 13:29N 49°29' E 000°06'0 0.0
2017-Aug-16 12:57N 49°29' E 000°06'0 0.0
2017-Aug-16 12:30N 49°29' E 000°06'0 0.0
2017-Aug-16 11:59N 49°29' E 000°06'0 0.0
2017-Aug-16 11:29N 49°29' E 000°06'0 0.0
2017-Aug-16 10:58N 49°29' E 000°06'0 0.0
2017-Aug-16 10:30N 49°29' E 000°06'0 0.0
2017-Aug-16 10:00N 49°29' E 000°06'0 0.0
2017-Aug-16 09:29N 49°29' E 000°06'0 0.0
2017-Aug-16 08:59N 49°29' E 000°06'0 0.0
2017-Aug-16 08:29N 49°29' E 000°06'0 0.0
2017-Aug-16 08:00N 49°29' E 000°06'0 0.0
2017-Aug-16 07:30N 49°29' E 000°06'0 0.0
2017-Aug-16 07:00N 49°29' E 000°06'0 0.0
2017-Aug-16 06:29N 49°29' E 000°06'0 0.0
2017-Aug-16 05:58N 49°29' E 000°06'0 0.0
2017-Aug-16 05:30N 49°29' E 000°06'0 0.0
2017-Aug-16 05:00N 49°29' E 000°06'0 0.0
2017-Aug-16 04:30N 49°29' E 000°06'1 1.2
2017-Aug-16 04:00N 49°29' E 000°07'4 8.5
2017-Aug-16 03:30N 49°30' E 000°01'713.6
2017-Aug-16 03:00N 49°32' W 000°09'611.2
2017-Aug-16 02:30N 49°34' W 000°17'713.7
2017-Aug-16 02:00N 49°40' W 000°21'263969.0
2017-Aug-16 02:00N 49°48' E 000°18'2643.3 250 / 141021.310.8 16.314.015.0
2017-Aug-16 01:23N 49°48' W 000°23'512.9
2017-Aug-16 01:00N 49°53' W 000°19'713.1
2017-Aug-16 00:31N 49°59' W 000°14'713.5
2017-Aug-16 00:00N 50°05' W 000°09'713.5
2017-Aug-15 23:30N 50°11' W 000°05'714.2
2017-Aug-15 23:00N 50°18' W 000°07'713.8
2017-Aug-15 22:30N 50°24' W 000°09'713.9
2017-Aug-15 22:01N 50°28' E 000°01'714.5
2017-Aug-15 21:30N 50°30' E 000°12'714.5
2017-Aug-15 21:00N 50°32' E 000°23'714.4
2017-Aug-15 20:30N 50°35' E 000°33'714.0
2017-Aug-15 20:00N 50°38' E 000°43'816.0
2017-Aug-15 19:31N 50°43' E 000°53'816.7
2017-Aug-15 19:01N 50°48' E 001°04'816.2
2017-Aug-15 18:30N 50°52' E 001°15'815.3
2017-Aug-15 18:01N 50°58' E 001°23'715.0
2017-Aug-15 17:31N 51°03' E 001°31'815.0
2017-Aug-15 17:01N 51°09' E 001°39'815.4
2017-Aug-15 16:31N 51°14' E 001°47'917.0
2017-Aug-15 16:01N 51°23' E 001°51'917.1
2017-Aug-15 15:30N 51°31' E 001°51'918.3
2017-Aug-15 15:01N 51°40' E 001°46'1019.1
2017-Aug-15 14:31N 51°49' E 001°44'1019.3
2017-Aug-15 14:01N 51°59' E 001°44'1019.3
2017-Aug-15 13:31N 52°08' E 001°46'2017.7
2017-Aug-15 12:23N 52°28' E 001°55'719.8
2017-Aug-15 12:00N 52°35' E 001°57'918.2
2017-Aug-15 11:30N 52°44' E 001°53'1019.3
2017-Aug-15 11:00N 52°52' E 001°44'1019.2
2017-Aug-15 10:30N 52°59' E 001°33'918.5
2017-Aug-15 10:00N 53°07' E 001°25'918.3
2017-Aug-15 09:31N 53°14' E 001°16'1018.2
2017-Aug-15 08:56N 53°23' E 001°08'4018.3
2017-Aug-15 06:45N 53°57' E 000°31'417.8
2017-Aug-15 06:31N 54°01' E 000°28'917.7
2017-Aug-15 06:01N 54°08' E 000°20'191170.0
2017-Aug-15 06:00N 54°24' E 000°00'1122.4 190 / 281009.510.8 15.512.815.0
2017-Aug-15 05:31N 54°16' E 000°12'917.3
2017-Aug-15 05:01N 54°23' E 000°04'917.2
2017-Aug-15 04:31N 54°30' W 000°05'816.9
2017-Aug-15 04:01N 54°37' W 000°13'816.8
2017-Aug-15 03:31N 54°44' W 000°21'916.6
2017-Aug-15 02:59N 54°51' W 000°29'816.6
2017-Aug-15 02:31N 54°58' W 000°36'816.5
2017-Aug-15 02:01N 55°05' W 000°44'816.5
2017-Aug-15 01:31N 55°12' W 000°52'816.4
2017-Aug-15 01:01N 55°18' W 001°00'7443.1
2017-Aug-15 01:00N 55°12' W 000°54'1632.1 160 / 321008.510.8 15.512.815.0
2017-Aug-15 00:31N 55°25' W 001°08'916.9
2017-Aug-15 00:00N 55°32' W 001°17'917.2
2017-Aug-14 23:30N 55°39' W 001°25'917.2
2017-Aug-14 23:00N 55°46' W 001°35'917.4
2017-Aug-14 22:31N 55°52' W 001°45'917.7
2017-Aug-14 22:01N 55°59' W 001°56'917.3
2017-Aug-14 21:30N 56°04' W 002°09'918.0
2017-Aug-14 21:01N 56°06' W 002°25'3182.6
2017-Aug-14 21:00N 56°06' W 002°30'612.2 150 / 181009.610.8 15.512.815.0
2017-Aug-14 20:31N 56°07' W 002°41'917.9
2017-Aug-14 20:01N 56°04' W 002°56'714.7
2017-Aug-14 19:31N 56°03' W 003°09'713.0
2017-Aug-14 19:00N 56°01' W 003°20'1 0.3
2017-Aug-14 14:33N 56°00' W 003°23'0 0.2
2017-Aug-14 14:30N 56°00' W 003°23'0 0.0
2017-Aug-14 08:20N 56°00' W 003°23'0 0.0
2017-Aug-14 07:17N 56°00' W 003°23'0 0.2
2017-Aug-14 06:35N 56°00' W 003°22'0 1.0
2017-Aug-14 06:22N 56°01' W 003°22'411.4
2017-Aug-14 06:00N 56°02' W 003°15'714.9
2017-Aug-14 05:30N 56°04' W 003°02'612.6
2017-Aug-14 05:00N 56°05' W 002°51'714.0
2017-Aug-14 04:30N 56°08' W 002°40'713.7
2017-Aug-14 04:00N 56°11' W 002°28'815.4
2017-Aug-14 03:30N 56°17' W 002°21'917.7
2017-Aug-14 03:00N 56°25' W 002°12'917.7
2017-Aug-14 02:30N 56°32' W 002°04'917.6
2017-Aug-14 02:01N 56°40' W 001°58'5272.5
2017-Aug-14 02:00N 56°36' W 001°54'1225.2 160 / 251017.010.8 13.511.614.0
2017-Aug-14 01:30N 56°48' W 001°51'917.0
2017-Aug-14 01:00N 56°56' W 001°45'916.9
2017-Aug-14 00:30N 57°04' W 001°39'916.6
2017-Aug-13 23:58N 57°13' W 001°38'816.6
2017-Aug-13 23:30N 57°20' W 001°37'816.6
2017-Aug-13 23:01N 57°29' W 001°36'816.3
2017-Aug-13 22:30N 57°37' W 001°38'816.1
2017-Aug-13 22:00N 57°44' W 001°44'816.0
2017-Aug-13 21:30N 57°47' W 001°58'917.5
2017-Aug-13 21:00N 57°48' W 002°14'46 2.5
2017-Aug-13 02:13N 58°28' W 002°58'419.6
2017-Aug-13 02:00N 58°32' W 002°58'1020.0
2017-Aug-13 01:30N 58°42' W 003°02'1019.7
2017-Aug-13 01:00N 58°43' W 003°21'816.6
2017-Aug-13 00:30N 58°43' W 003°37'714.5
2017-Aug-13 00:00N 58°43' W 003°51'714.3
2017-Aug-12 23:30N 58°43' W 004°04'714.2
2017-Aug-12 23:00N 58°43' W 004°18'6540.6
2017-Aug-12 23:00N 58°42' W 004°30'1 2.4 270 / 181016.610.8 13.010.114.0
2017-Aug-12 22:30N 58°43' W 004°32'4512.9
2017-Aug-12 19:00N 58°12' W 005°36'1110.0 320 / 161016.610.8 13.610.615.0
2017-Aug-12 17:54N 58°05' W 005°52'613.0
2017-Aug-12 17:29N 58°00' W 005°57'4513.0
2017-Aug-12 14:00N 57°24' W 006°48'6220.7 320 / 161016.610.8 13.610.615.0
2017-Aug-12 11:00N 56°24' W 007°18'2512.2 320 / 201015.910.8 13.210.915.0
2017-Aug-12 08:54N 55°59' W 007°07'717.5
2017-Aug-12 08:30N 55°53' W 007°01'918.0
2017-Aug-12 08:01N 55°45' W 006°54'918.9
2017-Aug-12 07:31N 55°37' W 006°46'1019.7
2017-Aug-12 07:01N 55°32' W 006°31'1020.6
2017-Aug-12 06:31N 55°27' W 006°15'1020.6
2017-Aug-12 06:00N 55°22' W 005°59'1021.0
2017-Aug-12 05:30N 55°15' W 005°45'4 7.0
2017-Aug-12 05:00N 55°12' W 005°42'1561.6 210 / 261015.110.8 14.212.016.0
2017-Aug-12 04:45N 55°20' W 005°19'519.3
2017-Aug-12 04:28N 55°22' W 005°11'10 0.4
2017-Aug-11 02:00N 55°24' W 004°54'339.4 210 / 261015.110.8 14.212.016.0
2017-Aug-11 01:55N 55°23' W 004°59'1010.5
2017-Aug-11 00:57N 55°19' W 005°15'710.9
2017-Aug-11 00:18N 55°12' W 005°19'311.2
2017-Aug-11 00:00N 55°10' W 005°24'611.2
2017-Aug-10 23:30N 55°08' W 005°33'510.8
2017-Aug-10 23:00N 55°03' W 005°35'611.2
2017-Aug-10 22:30N 54°58' W 005°32'611.0
2017-Aug-10 22:00N 54°52' W 005°31'510.1
2017-Aug-10 21:30N 54°47' W 005°32'611.5
2017-Aug-10 21:00N 54°43' W 005°40'510.3
2017-Aug-10 20:30N 54°41' W 005°48'5 9.6
2017-Aug-10 20:00N 54°38' W 005°53'1 0.8
2017-Aug-10 19:07N 54°37' W 005°54'0 0.0
2017-Aug-10 18:58N 54°37' W 005°54'0 0.0
2017-Aug-10 17:10N 54°37' W 005°54'0 0.0
2017-Aug-10 16:52N 54°37' W 005°54'0 0.0
2017-Aug-10 16:16N 54°37' W 005°54'0 0.0
2017-Aug-10 15:49N 54°37' W 005°54'0 0.0
2017-Aug-10 15:22N 54°37' W 005°54'0 0.0
2017-Aug-10 14:52N 54°37' W 005°54'0 0.0
2017-Aug-10 14:28N 54°37' W 005°54'0 0.0
2017-Aug-10 13:19N 54°37' W 005°54'0 0.0
2017-Aug-10 12:52N 54°37' W 005°54'0 0.0
2017-Aug-10 12:28N 54°37' W 005°54'0 0.0
2017-Aug-10 11:58N 54°37' W 005°54'0 0.0
2017-Aug-10 10:34N 54°37' W 005°54'0 0.0
2017-Aug-10 10:22N 54°37' W 005°54'0 0.0
2017-Aug-10 09:04N 54°37' W 005°54'0 0.0
2017-Aug-10 08:55N 54°37' W 005°54'0 0.0
2017-Aug-10 08:23N 54°37' W 005°54'1 1.4
2017-Aug-10 07:55N 54°38' W 005°53'3 6.1
2017-Aug-10 07:29N 54°40' W 005°51'510.9
2017-Aug-10 07:00N 54°43' W 005°43'3 6.5
2017-Aug-10 06:30N 54°44' W 005°38'3 6.9
2017-Aug-10 06:00N 54°45' W 005°32'510.0
2017-Aug-10 05:30N 54°42' W 005°25'611.0
2017-Aug-10 05:00N 54°38' W 005°19'611.2
2017-Aug-10 04:30N 54°33' W 005°12'612.7
2017-Aug-10 04:00N 54°28' W 005°05'612.4
2017-Aug-10 03:30N 54°23' W 005°00'714.4
2017-Aug-10 03:00N 54°16' W 005°05'714.1
2017-Aug-10 02:31N 54°10' W 005°10'713.7
2017-Aug-10 02:00N 54°03' W 005°13'3211.2
2017-Aug-10 02:00N 54°00' W 005°12'5 9.9 340 / 231023.610.8 14.611.615.0
2017-Aug-10 01:30N 53°59' W 005°04'5015.1
2017-Aug-09 22:12N 53°36' W 003°49'315.2
2017-Aug-09 22:01N 53°35' W 003°45'815.0
2017-Aug-09 21:30N 53°34' W 003°32'815.2
2017-Aug-09 21:00N 53°32' W 003°20'3354.6
2017-Aug-09 21:00N 53°30' W 003°24'815.8 330 / 301023.6 5.4 15.610.716.0
2017-Aug-09 20:30N 53°32' W 003°11'5 9.2
2017-Aug-09 20:00N 53°29' W 003°05'510.3
2017-Aug-09 19:30N 53°25' W 003°00'0 0.5
2017-Aug-09 18:58N 53°24' W 003°00'0 0.0
2017-Aug-09 18:28N 53°24' W 003°00'0 0.0
2017-Aug-09 17:55N 53°24' W 003°00'0 0.0
2017-Aug-09 17:28N 53°24' W 003°00'0 0.0
2017-Aug-09 16:58N 53°24' W 003°00'0 0.0
2017-Aug-09 16:28N 53°24' W 003°00'0 0.0
2017-Aug-09 15:58N 53°24' W 003°00'0 0.0
2017-Aug-09 15:28N 53°24' W 003°00'0 0.0
2017-Aug-09 14:58N 53°24' W 003°00'0 0.0
2017-Aug-09 14:28N 53°24' W 003°00'0 0.0
2017-Aug-09 13:58N 53°24' W 003°00'0 0.0
2017-Aug-09 13:28N 53°24' W 003°00'0 0.0
2017-Aug-09 12:58N 53°24' W 003°00'0 0.0
2017-Aug-09 12:28N 53°24' W 003°00'0 0.0
2017-Aug-09 11:43N 53°24' W 003°00'0 0.0
2017-Aug-09 11:28N 53°24' W 003°00'0 0.0
2017-Aug-09 10:55N 53°24' W 003°00'0 0.0
2017-Aug-09 10:25N 53°24' W 003°00'0 0.0
2017-Aug-09 09:58N 53°24' W 003°00'0 0.0
2017-Aug-09 09:28N 53°24' W 003°00'0 0.0
2017-Aug-09 08:55N 53°24' W 003°00'0 0.0
2017-Aug-09 08:28N 53°24' W 003°00'0 0.0
2017-Aug-09 08:01N 53°24' W 003°00'0 0.0
2017-Aug-09 07:25N 53°24' W 003°00'0 0.0
2017-Aug-09 06:58N 53°24' W 003°00'0 0.0
2017-Aug-09 06:28N 53°24' W 003°00'0 0.0
2017-Aug-09 05:58N 53°24' W 003°00'0 0.0
2017-Aug-09 05:28N 53°24' W 003°00'0 0.0
2017-Aug-09 04:58N 53°24' W 003°00'0 0.3
2017-Aug-09 04:30N 53°24' W 003°00'3 5.1
2017-Aug-09 04:00N 53°27' W 003°02'4 8.6
2017-Aug-09 03:30N 53°30' W 003°06'611.3
2017-Aug-09 03:00N 53°31' W 003°15'815.8
2017-Aug-09 02:30N 53°31' W 003°29'916.9
2017-Aug-09 02:00N 53°31' W 003°43'917.7
2017-Aug-09 01:30N 53°35' W 003°57'917.6
2017-Aug-09 01:00N 53°38' W 004°10'78 3.8
2017-Aug-08 04:36N 52°44' W 005°44'112.4
2017-Aug-08 04:30N 52°43' W 005°44'612.1
2017-Aug-08 04:00N 52°37' W 005°47'611.7
2017-Aug-08 03:29N 52°31' W 005°50'511.2
2017-Aug-08 03:00N 52°26' W 005°52'510.8
2017-Aug-08 02:30N 52°21' W 005°54'510.4
2017-Aug-08 02:00N 52°16' W 005°57'4305.0
2017-Aug-08 02:00N 52°12' W 005°54'3 6.8 340 / 201014.310.8 14.012.216.0
2017-Aug-08 01:30N 52°11' W 005°59'511.0
2017-Aug-08 01:00N 52°06' W 006°04'612.0
2017-Aug-08 00:30N 52°03' W 006°12'612.7
2017-Aug-08 00:00N 52°01' W 006°22'613.0
2017-Aug-07 23:30N 51°59' W 006°32'713.5
2017-Aug-07 23:00N 51°58' W 006°42'713.5
2017-Aug-07 22:30N 51°56' W 006°53'713.6
2017-Aug-07 22:00N 51°54' W 007°04'713.5
2017-Aug-07 21:30N 51°53' W 007°14'713.5
2017-Aug-07 21:00N 51°51' W 007°25'713.5
2017-Aug-07 20:30N 51°49' W 007°36'713.5
2017-Aug-07 20:00N 51°48' W 007°46'6426.0
2017-Aug-07 20:00N 51°48' W 007°36'1327.0 320 / 121016.210.8 14.012.216.0
2017-Aug-07 19:30N 51°46' W 007°57'713.9
2017-Aug-07 19:00N 51°44' W 008°08'510.7
2017-Aug-07 18:30N 51°46' W 008°15'5 9.8
2017-Aug-07 18:00N 51°51' W 008°17'0 0.8
2017-Aug-07 17:29N 51°51' W 008°18'0 0.0
2017-Aug-07 16:59N 51°51' W 008°18'0 0.0
2017-Aug-07 16:29N 51°51' W 008°18'0 0.0
2017-Aug-07 15:59N 51°51' W 008°18'0 0.0
2017-Aug-07 15:29N 51°51' W 008°18'0 0.0
2017-Aug-07 14:59N 51°51' W 008°18'0 0.0
2017-Aug-07 14:29N 51°51' W 008°18'0 0.0
2017-Aug-07 13:59N 51°51' W 008°18'0 0.0
2017-Aug-07 13:29N 51°51' W 008°18'0 0.0
2017-Aug-07 12:59N 51°51' W 008°18'0 0.0
2017-Aug-07 12:29N 51°51' W 008°18'0 0.0
2017-Aug-07 11:59N 51°51' W 008°18'0 0.0
2017-Aug-07 11:29N 51°51' W 008°18'0 0.0
2017-Aug-07 10:59N 51°51' W 008°18'0 0.0
2017-Aug-07 10:29N 51°51' W 008°18'0 0.0
2017-Aug-07 09:59N 51°51' W 008°18'0 0.0
2017-Aug-07 09:29N 51°51' W 008°18'0 0.0
2017-Aug-07 08:59N 51°51' W 008°18'0 0.0
2017-Aug-07 08:29N 51°51' W 008°18'0 0.0
2017-Aug-07 07:59N 51°51' W 008°18'0 0.0
2017-Aug-07 07:29N 51°51' W 008°18'0 0.0
2017-Aug-07 06:59N 51°51' W 008°18'0 0.9
2017-Aug-07 06:30N 51°51' W 008°17'510.9
2017-Aug-07 06:01N 51°46' W 008°15'713.4
2017-Aug-07 05:31N 51°40' W 008°09'1019.0
2017-Aug-07 05:01N 51°34' W 007°58'918.8
2017-Aug-07 04:31N 51°27' W 007°47'918.5
2017-Aug-07 04:00N 51°21' W 007°36'  

Dump ship's entire track history